createdAt,value
2023-04-16T00:00:19.466Z,947.37
2023-04-16T00:01:19.462Z,947.37
2023-04-16T00:02:19.520Z,947.34
2023-04-16T00:03:19.640Z,947.38
2023-04-16T00:04:19.678Z,947.35
2023-04-16T00:05:19.395Z,947.30
2023-04-16T00:06:19.434Z,947.30
2023-04-16T00:07:19.380Z,947.36
2023-04-16T00:08:19.365Z,947.34
2023-04-16T00:09:19.471Z,947.33
2023-04-16T00:10:19.364Z,947.31
2023-04-16T00:11:19.332Z,947.40
2023-04-16T00:12:19.357Z,947.40
2023-04-16T00:13:27.012Z,947.39
2023-04-16T00:14:19.403Z,947.41
2023-04-16T00:15:19.287Z,947.40
2023-04-16T00:16:19.382Z,947.40
2023-04-16T00:17:19.356Z,947.45
2023-04-16T00:18:19.286Z,947.41
2023-04-16T00:19:26.942Z,947.44
2023-04-16T00:20:19.257Z,947.43
2023-04-16T00:21:26.895Z,947.46
2023-04-16T00:22:19.252Z,947.44
2023-04-16T00:23:19.214Z,947.46
2023-04-16T00:24:28.153Z,947.47
2023-04-16T00:25:26.865Z,947.48
2023-04-16T00:26:26.832Z,947.44
2023-04-16T00:27:26.832Z,947.46
2023-04-16T00:28:19.179Z,947.44
2023-04-16T00:29:26.812Z,947.39
2023-04-16T00:30:26.812Z,947.48
2023-04-16T00:31:19.248Z,947.46
2023-04-16T00:32:19.149Z,947.51
2023-04-16T00:33:19.142Z,947.51
2023-04-16T00:34:19.076Z,947.50
2023-04-16T00:35:19.097Z,947.46
2023-04-16T00:36:19.077Z,947.49
2023-04-16T00:37:19.061Z,947.54
2023-04-16T00:38:19.044Z,947.55
2023-04-16T00:39:19.054Z,947.52
2023-04-16T00:40:19.018Z,947.53
2023-04-16T00:41:19.038Z,947.54
2023-04-16T00:42:18.996Z,947.52
2023-04-16T00:43:18.991Z,947.54
2023-04-16T00:44:19.007Z,947.53
2023-04-16T00:45:18.988Z,947.49
2023-04-16T00:46:19.008Z,947.52
2023-04-16T00:47:18.998Z,947.53
2023-04-16T00:48:18.940Z,947.52
2023-04-16T00:49:18.911Z,947.58
2023-04-16T00:50:18.897Z,947.57
2023-04-16T00:51:18.910Z,947.56
2023-04-16T00:52:18.880Z,947.54
2023-04-16T00:53:18.881Z,947.54
2023-04-16T00:54:18.866Z,947.55
2023-04-16T00:55:18.905Z,947.54
2023-04-16T00:56:18.858Z,947.59
2023-04-16T00:57:18.831Z,947.61
2023-04-16T00:58:18.826Z,947.60
2023-04-16T00:59:18.855Z,947.61
2023-04-16T01:00:18.814Z,947.59
2023-04-16T01:01:18.858Z,947.61
2023-04-16T01:02:18.816Z,947.59
2023-04-16T01:03:18.949Z,947.59
2023-04-16T01:04:19.622Z,947.62
2023-04-16T01:05:18.813Z,947.58
2023-04-16T01:06:18.702Z,947.61
2023-04-16T01:07:18.703Z,947.58
2023-04-16T01:08:18.783Z,947.58
2023-04-16T01:09:18.718Z,947.59
2023-04-16T01:10:18.663Z,947.56
2023-04-16T01:11:18.679Z,947.60
2023-04-16T01:12:18.695Z,947.61
2023-04-16T01:13:18.630Z,947.63
2023-04-16T01:14:18.635Z,947.66
2023-04-16T01:15:18.605Z,947.63
2023-04-16T01:16:18.657Z,947.68
2023-04-16T01:17:18.582Z,947.66
2023-04-16T01:18:18.640Z,947.70
2023-04-16T01:19:18.578Z,947.66
2023-04-16T01:20:18.571Z,947.66
2023-04-16T01:21:18.565Z,947.63
2023-04-16T01:22:19.138Z,947.64
2023-04-16T01:23:18.548Z,947.66
2023-04-16T01:24:18.586Z,947.62
2023-04-16T01:25:18.524Z,947.68
2023-04-16T01:26:18.502Z,947.64
2023-04-16T01:27:18.473Z,947.67
2023-04-16T01:28:18.475Z,947.66
2023-04-16T01:29:18.480Z,947.72
2023-04-16T01:30:18.550Z,947.69
2023-04-16T01:31:18.473Z,947.67
2023-04-16T01:32:18.443Z,947.64
2023-04-16T01:33:18.396Z,947.65
2023-04-16T01:34:18.414Z,947.67
2023-04-16T01:35:18.402Z,947.68
2023-04-16T01:36:18.452Z,947.63
2023-04-16T01:37:18.375Z,947.66
2023-04-16T01:38:18.348Z,947.68
2023-04-16T01:39:18.338Z,947.68
2023-04-16T01:40:18.340Z,947.70
2023-04-16T01:41:18.346Z,947.68
2023-04-16T01:42:18.370Z,947.73
2023-04-16T01:43:18.317Z,947.68
2023-04-16T01:44:18.297Z,947.67
2023-04-16T01:45:18.264Z,947.65
2023-04-16T01:46:18.387Z,947.66
2023-04-16T01:47:18.337Z,947.67
2023-04-16T01:48:18.287Z,947.62
2023-04-16T01:49:18.253Z,947.62
2023-04-16T01:50:18.215Z,947.64
2023-04-16T01:51:18.211Z,947.62
2023-04-16T01:52:18.212Z,947.67
2023-04-16T01:53:18.219Z,947.70
2023-04-16T01:54:18.180Z,947.64
2023-04-16T01:55:18.150Z,947.67
2023-04-16T01:56:18.181Z,947.71
2023-04-16T01:57:18.142Z,947.70
2023-04-16T01:58:18.121Z,947.68
2023-04-16T01:59:18.110Z,947.68
2023-04-16T02:00:18.172Z,947.69
2023-04-16T02:01:18.158Z,947.70
2023-04-16T02:02:18.187Z,947.70
2023-04-16T02:03:18.189Z,947.75
2023-04-16T02:04:18.056Z,947.75
2023-04-16T02:05:18.051Z,947.80
2023-04-16T02:06:18.110Z,947.77
2023-04-16T02:07:18.084Z,947.81
2023-04-16T02:08:18.175Z,947.81
2023-04-16T02:09:18.030Z,947.84
2023-04-16T02:10:18.012Z,947.79
2023-04-16T02:11:17.965Z,947.86
2023-04-16T02:12:17.956Z,947.86
2023-04-16T02:13:17.957Z,947.88
2023-04-16T02:14:17.965Z,947.84
2023-04-16T02:15:17.920Z,947.84
2023-04-16T02:16:17.926Z,947.80
2023-04-16T02:17:17.927Z,947.86
2023-04-16T02:18:17.920Z,947.87
2023-04-16T02:19:17.874Z,947.82
2023-04-16T02:20:17.888Z,947.88
2023-04-16T02:21:17.851Z,947.91
2023-04-16T02:22:17.845Z,947.89
2023-04-16T02:23:17.822Z,947.86
2023-04-16T02:24:17.832Z,947.83
2023-04-16T02:25:17.841Z,947.82
2023-04-16T02:26:17.795Z,947.85
2023-04-16T02:27:17.785Z,947.85
2023-04-16T02:28:17.791Z,947.87
2023-04-16T02:29:17.758Z,947.87
2023-04-16T02:30:17.772Z,947.92
2023-04-16T02:31:17.786Z,947.88
2023-04-16T02:32:17.729Z,947.89
2023-04-16T02:33:17.742Z,947.92
2023-04-16T02:34:17.702Z,947.89
2023-04-16T02:35:17.692Z,947.95
2023-04-16T02:36:17.694Z,947.92
2023-04-16T02:37:17.710Z,947.90
2023-04-16T02:38:17.661Z,947.91
2023-04-16T02:39:17.644Z,947.91
2023-04-16T02:40:17.654Z,947.90
2023-04-16T02:41:17.957Z,947.94
2023-04-16T02:42:17.622Z,947.95
2023-04-16T02:43:17.594Z,947.97
2023-04-16T02:44:17.589Z,948.03
2023-04-16T02:45:19.871Z,948.00
2023-04-16T02:46:17.575Z,948.03
2023-04-16T02:47:17.646Z,948.02
2023-04-16T02:48:17.563Z,948.01
2023-04-16T02:49:17.530Z,948.04
2023-04-16T02:50:17.541Z,948.07
2023-04-16T02:51:17.514Z,948.07
2023-04-16T02:52:17.498Z,948.07
2023-04-16T02:53:17.496Z,948.06
2023-04-16T02:54:17.484Z,948.08
2023-04-16T02:55:17.496Z,948.10
2023-04-16T02:56:17.450Z,948.12
2023-04-16T02:57:17.483Z,948.12
2023-04-16T02:58:17.427Z,948.07
2023-04-16T02:59:17.419Z,948.08
2023-04-16T03:00:17.417Z,948.06
2023-04-16T03:01:17.415Z,948.04
2023-04-16T03:02:17.421Z,948.05
2023-04-16T03:03:17.401Z,948.08
2023-04-16T03:04:17.426Z,948.09
2023-04-16T03:05:17.356Z,948.08
2023-04-16T03:06:17.371Z,948.19
2023-04-16T03:07:17.328Z,948.16
2023-04-16T03:08:17.339Z,948.18
2023-04-16T03:09:17.350Z,948.19
2023-04-16T03:10:17.296Z,948.20
2023-04-16T03:11:17.292Z,948.22
2023-04-16T03:12:17.302Z,948.19
2023-04-16T03:13:17.294Z,948.29
2023-04-16T03:14:17.249Z,948.26
2023-04-16T03:15:17.238Z,948.30
2023-04-16T03:16:17.320Z,948.31
2023-04-16T03:17:17.232Z,948.27
2023-04-16T03:18:17.228Z,948.31
2023-04-16T03:19:17.194Z,948.24
2023-04-16T03:20:17.216Z,948.26
2023-04-16T03:21:17.203Z,948.22
2023-04-16T03:22:17.157Z,948.27
2023-04-16T03:23:17.172Z,948.23
2023-04-16T03:24:17.169Z,948.26
2023-04-16T03:25:17.127Z,948.30
2023-04-16T03:26:17.116Z,948.26
2023-04-16T03:27:17.107Z,948.31
2023-04-16T03:28:17.090Z,948.32
2023-04-16T03:29:17.119Z,948.32
2023-04-16T03:30:17.120Z,948.30
2023-04-16T03:31:17.115Z,948.33
2023-04-16T03:32:17.062Z,948.31
2023-04-16T03:33:17.057Z,948.31
2023-04-16T03:34:17.020Z,948.27
2023-04-16T03:35:17.010Z,948.30
2023-04-16T03:36:17.069Z,948.32
2023-04-16T03:37:17.013Z,948.31
2023-04-16T03:38:16.978Z,948.29
2023-04-16T03:39:16.981Z,948.25
2023-04-16T03:40:17.010Z,948.26
2023-04-16T03:41:16.960Z,948.22
2023-04-16T03:42:16.963Z,948.23
2023-04-16T03:43:16.928Z,948.26
2023-04-16T03:44:16.909Z,948.32
2023-04-16T03:45:16.917Z,948.32
2023-04-16T03:46:16.928Z,948.26
2023-04-16T03:47:16.931Z,948.31
2023-04-16T03:48:16.882Z,948.33
2023-04-16T03:49:16.857Z,948.32
2023-04-16T03:50:16.840Z,948.29
2023-04-16T03:51:16.832Z,948.37
2023-04-16T03:52:16.828Z,948.36
2023-04-16T03:53:16.860Z,948.36
2023-04-16T03:54:16.796Z,948.34
2023-04-16T03:55:16.812Z,948.38
2023-04-16T03:56:16.774Z,948.39
2023-04-16T03:57:16.767Z,948.39
2023-04-16T03:58:16.771Z,948.37
2023-04-16T03:59:16.755Z,948.41
2023-04-16T04:00:16.728Z,948.40
2023-04-16T04:01:16.739Z,948.41
2023-04-16T04:02:16.860Z,948.42
2023-04-16T04:03:17.031Z,948.39
2023-04-16T04:04:16.756Z,948.42
2023-04-16T04:05:16.686Z,948.45
2023-04-16T04:06:16.666Z,948.46
2023-04-16T04:07:16.656Z,948.47
2023-04-16T04:08:16.656Z,948.50
2023-04-16T04:09:16.625Z,948.49
2023-04-16T04:10:16.615Z,948.50
2023-04-16T04:11:16.622Z,948.53
2023-04-16T04:12:16.593Z,948.60
2023-04-16T04:13:16.604Z,948.54
2023-04-16T04:14:16.575Z,948.58
2023-04-16T04:15:16.592Z,948.58
2023-04-16T04:16:16.568Z,948.61
2023-04-16T04:17:16.576Z,948.58
2023-04-16T04:18:16.564Z,948.61
2023-04-16T04:19:16.517Z,948.61
2023-04-16T04:20:16.511Z,948.58
2023-04-16T04:21:16.496Z,948.65
2023-04-16T04:22:16.721Z,948.60
2023-04-16T04:23:16.505Z,948.64
2023-04-16T04:24:16.468Z,948.66
2023-04-16T04:25:16.480Z,948.68
2023-04-16T04:26:16.484Z,948.67
2023-04-16T04:27:16.430Z,948.64
2023-04-16T04:28:16.440Z,948.67
2023-04-16T04:29:16.416Z,948.72
2023-04-16T04:30:16.393Z,948.67
2023-04-16T04:31:16.386Z,948.73
2023-04-16T04:32:16.397Z,948.65
2023-04-16T04:33:16.375Z,948.70
2023-04-16T04:34:16.342Z,948.68
2023-04-16T04:35:16.352Z,948.73
2023-04-16T04:36:16.317Z,948.69
2023-04-16T04:37:16.357Z,948.70
2023-04-16T04:38:16.366Z,948.71
2023-04-16T04:39:16.328Z,948.70
2023-04-16T04:40:16.282Z,948.75
2023-04-16T04:41:16.280Z,948.74
2023-04-16T04:42:16.257Z,948.72
2023-04-16T04:43:16.250Z,948.80
2023-04-16T04:44:16.256Z,948.78
2023-04-16T04:45:16.237Z,948.75
2023-04-16T04:46:16.242Z,948.78
2023-04-16T04:47:16.228Z,948.83
2023-04-16T04:48:16.189Z,948.82
2023-04-16T04:49:16.229Z,948.85
2023-04-16T04:50:16.158Z,948.89
2023-04-16T04:51:16.156Z,948.90
2023-04-16T04:52:16.147Z,948.94
2023-04-16T04:53:16.145Z,948.94
2023-04-16T04:54:16.117Z,948.90
2023-04-16T04:55:16.177Z,949.02
2023-04-16T04:56:16.096Z,948.92
2023-04-16T04:57:16.092Z,948.98
2023-04-16T04:58:16.098Z,948.99
2023-04-16T04:59:16.084Z,948.99
2023-04-16T05:00:16.055Z,948.96
2023-04-16T05:01:16.069Z,948.98
2023-04-16T05:02:16.181Z,949.02
2023-04-16T05:03:16.093Z,949.00
2023-04-16T05:04:16.026Z,949.03
2023-04-16T05:05:16.085Z,949.05
2023-04-16T05:06:15.986Z,949.06
2023-04-16T05:07:15.996Z,949.07
2023-04-16T05:08:16.000Z,949.03
2023-04-16T05:09:15.954Z,949.02
2023-04-16T05:10:15.936Z,949.04
2023-04-16T05:11:15.937Z,949.05
2023-04-16T05:12:15.912Z,949.03
2023-04-16T05:13:15.920Z,949.06
2023-04-16T05:14:15.889Z,949.04
2023-04-16T05:15:15.888Z,949.06
2023-04-16T05:16:15.891Z,949.06
2023-04-16T05:17:15.912Z,949.07
2023-04-16T05:18:15.883Z,949.10
2023-04-16T05:19:15.839Z,949.05
2023-04-16T05:20:15.823Z,949.11
2023-04-16T05:21:15.836Z,949.05
2023-04-16T05:22:15.799Z,949.09
2023-04-16T05:23:15.813Z,949.10
2023-04-16T05:24:15.801Z,949.11
2023-04-16T05:25:15.770Z,949.17
2023-04-16T05:26:15.795Z,949.17
2023-04-16T05:27:15.776Z,949.12
2023-04-16T05:28:15.784Z,949.16
2023-04-16T05:29:15.741Z,949.17
2023-04-16T05:30:15.713Z,949.19
2023-04-16T05:31:15.809Z,949.20
2023-04-16T05:32:15.711Z,949.23
2023-04-16T05:33:15.695Z,949.24
2023-04-16T05:34:15.680Z,949.24
2023-04-16T05:35:17.446Z,949.14
2023-04-16T05:36:15.645Z,949.18
2023-04-16T05:37:15.677Z,949.19
2023-04-16T05:38:15.628Z,949.24
2023-04-16T05:39:15.611Z,949.23
2023-04-16T05:40:15.606Z,949.20
2023-04-16T05:41:15.616Z,949.15
2023-04-16T05:42:15.576Z,949.26
2023-04-16T05:43:15.572Z,949.21
2023-04-16T05:44:15.557Z,949.22
2023-04-16T05:45:15.570Z,949.29
2023-04-16T05:46:15.565Z,949.28
2023-04-16T05:47:15.554Z,949.28
2023-04-16T05:48:15.507Z,949.29
2023-04-16T05:49:15.499Z,949.29
2023-04-16T05:50:15.482Z,949.30
2023-04-16T05:51:15.499Z,949.32
2023-04-16T05:52:15.464Z,949.31
2023-04-16T05:53:15.486Z,949.31
2023-04-16T05:54:15.457Z,949.34
2023-04-16T05:55:15.432Z,949.32
2023-04-16T05:56:15.413Z,949.35
2023-04-16T05:57:16.138Z,949.33
2023-04-16T05:58:15.400Z,949.39
2023-04-16T05:59:15.410Z,949.36
2023-04-16T06:00:15.510Z,949.35
2023-04-16T06:01:15.366Z,949.38
2023-04-16T06:02:15.401Z,949.39
2023-04-16T06:03:15.509Z,949.38
2023-04-16T06:04:15.394Z,949.40
2023-04-16T06:05:15.359Z,949.44
2023-04-16T06:06:15.323Z,949.45
2023-04-16T06:07:15.294Z,949.40
2023-04-16T06:08:15.280Z,949.45
2023-04-16T06:09:15.302Z,949.48
2023-04-16T06:10:15.255Z,949.47
2023-04-16T06:11:15.284Z,949.45
2023-04-16T06:12:15.233Z,949.50
2023-04-16T06:13:15.231Z,949.65
2023-04-16T06:14:15.233Z,949.73
2023-04-16T06:15:15.235Z,949.74
2023-04-16T06:16:15.253Z,949.69
2023-04-16T06:17:15.211Z,949.66
2023-04-16T06:18:15.262Z,949.66
2023-04-16T06:19:15.332Z,949.64
2023-04-16T06:20:15.179Z,949.70
2023-04-16T06:21:15.133Z,949.69
2023-04-16T06:22:15.121Z,949.72
2023-04-16T06:23:15.420Z,949.69
2023-04-16T06:24:15.096Z,949.65
2023-04-16T06:25:16.941Z,949.64
2023-04-16T06:26:15.070Z,949.64
2023-04-16T06:27:15.115Z,949.62
2023-04-16T06:28:15.065Z,949.62
2023-04-16T06:29:15.070Z,949.63
2023-04-16T06:30:15.048Z,949.64
2023-04-16T06:31:15.035Z,949.67
2023-04-16T06:32:15.043Z,949.69
2023-04-16T06:33:15.009Z,949.81
2023-04-16T06:34:15.020Z,949.84
2023-04-16T06:35:14.979Z,949.80
2023-04-16T06:36:14.980Z,949.82
2023-04-16T06:37:14.960Z,949.79
2023-04-16T06:38:14.948Z,949.80
2023-04-16T06:39:14.954Z,949.85
2023-04-16T06:40:14.950Z,949.81
2023-04-16T06:41:14.945Z,949.77
2023-04-16T06:42:14.892Z,949.79
2023-04-16T06:43:14.888Z,949.77
2023-04-16T06:44:14.880Z,949.75
2023-04-16T06:45:14.879Z,949.78
2023-04-16T06:46:14.886Z,949.75
2023-04-16T06:47:14.849Z,949.73
2023-04-16T06:48:14.837Z,949.78
2023-04-16T06:49:14.815Z,949.71
2023-04-16T06:50:14.819Z,949.71
2023-04-16T06:51:14.797Z,949.58
2023-04-16T06:52:14.802Z,949.59
2023-04-16T06:53:14.769Z,949.61
2023-04-16T06:54:14.760Z,949.65
2023-04-16T06:55:14.784Z,949.66
2023-04-16T06:56:22.518Z,949.63
2023-04-16T06:57:14.761Z,949.63
2023-04-16T06:58:22.420Z,949.64
2023-04-16T06:59:22.426Z,949.59
2023-04-16T07:00:22.524Z,949.58
2023-04-16T07:01:24.499Z,949.60
2023-04-16T07:02:22.852Z,949.59
2023-04-16T07:03:22.813Z,949.53
2023-04-16T07:04:22.434Z,949.49
2023-04-16T07:05:14.663Z,949.56
2023-04-16T07:07:43.114Z,949.57
2023-04-16T07:08:43.128Z,949.64
2023-04-16T07:09:43.029Z,949.60
2023-04-16T07:10:50.980Z,949.61
2023-04-16T07:11:43.023Z,949.57
2023-04-16T07:12:43.003Z,949.58
2023-04-16T07:13:43.096Z,949.62
2023-04-16T07:14:42.965Z,949.62
2023-04-16T07:15:42.982Z,949.69
2023-04-16T07:16:43.185Z,949.64
2023-04-16T07:17:43.007Z,949.64
2023-04-16T07:18:43.049Z,949.63
2023-04-16T07:19:42.924Z,949.66
2023-04-16T07:20:42.949Z,949.66
2023-04-16T07:21:42.914Z,949.68
2023-04-16T07:22:43.556Z,949.74
2023-04-16T07:23:42.906Z,949.75
2023-04-16T07:24:42.872Z,949.73
2023-04-16T07:25:42.868Z,949.77
2023-04-16T07:26:42.876Z,949.75
2023-04-16T07:27:42.864Z,949.77
2023-04-16T07:28:42.816Z,949.77
2023-04-16T07:29:42.816Z,949.77
2023-04-16T07:30:42.794Z,949.77
2023-04-16T07:31:42.833Z,949.78
2023-04-16T07:32:42.841Z,949.77
2023-04-16T07:33:42.766Z,949.80
2023-04-16T07:34:42.792Z,949.80
2023-04-16T07:35:42.741Z,949.83
2023-04-16T07:36:42.748Z,949.86
2023-04-16T07:37:42.718Z,949.84
2023-04-16T07:38:42.718Z,949.85
2023-04-16T07:39:42.724Z,949.90
2023-04-16T07:40:42.706Z,949.85
2023-04-16T07:41:42.697Z,949.88
2023-04-16T07:42:42.662Z,949.88
2023-04-16T07:43:42.671Z,949.90
2023-04-16T07:44:42.658Z,949.88
2023-04-16T07:45:42.652Z,949.91
2023-04-16T07:46:46.807Z,949.91
2023-04-16T07:47:42.650Z,949.94
2023-04-16T07:48:42.597Z,949.92
2023-04-16T07:49:42.622Z,949.95
2023-04-16T07:50:42.574Z,950.01
2023-04-16T07:51:42.593Z,949.97
2023-04-16T07:52:42.611Z,949.94
2023-04-16T07:53:42.576Z,949.97
2023-04-16T07:54:42.550Z,949.97
2023-04-16T07:55:42.522Z,950.02
2023-04-16T07:56:42.532Z,949.99
2023-04-16T07:57:42.500Z,950.09
2023-04-16T07:58:42.501Z,950.03
2023-04-16T07:59:42.520Z,950.04
2023-04-16T08:00:42.465Z,950.07
2023-04-16T08:01:42.469Z,950.09
2023-04-16T08:02:42.594Z,950.06
2023-04-16T08:03:42.599Z,950.09
2023-04-16T08:04:42.719Z,950.11
2023-04-16T08:05:42.416Z,950.08
2023-04-16T08:06:42.399Z,950.04
2023-04-16T08:07:42.388Z,950.04
2023-04-16T08:08:42.406Z,950.04
2023-04-16T08:09:42.380Z,950.05
2023-04-16T08:10:42.416Z,950.03
2023-04-16T08:11:42.343Z,950.05
2023-04-16T08:12:42.329Z,950.08
2023-04-16T08:13:42.364Z,950.08
2023-04-16T08:14:42.342Z,950.06
2023-04-16T08:15:42.399Z,950.09
2023-04-16T08:16:42.297Z,950.07
2023-04-16T08:17:42.344Z,950.18
2023-04-16T08:18:42.271Z,950.12
2023-04-16T08:19:42.256Z,950.20
2023-04-16T08:20:43.438Z,950.18
2023-04-16T08:21:42.238Z,950.20
2023-04-16T08:22:42.232Z,950.21
2023-04-16T08:23:42.208Z,950.16
2023-04-16T08:24:42.216Z,950.18
2023-04-16T08:25:42.223Z,950.18
2023-04-16T08:26:42.180Z,950.21
2023-04-16T08:27:42.175Z,950.23
2023-04-16T08:28:42.166Z,950.22
2023-04-16T08:29:42.168Z,950.22
2023-04-16T08:30:42.136Z,950.23
2023-04-16T08:31:42.181Z,950.32
2023-04-16T08:32:42.180Z,950.27
2023-04-16T08:33:42.104Z,950.34
2023-04-16T08:34:42.138Z,950.31
2023-04-16T08:35:42.079Z,950.31
2023-04-16T08:36:42.068Z,950.37
2023-04-16T08:37:42.064Z,950.40
2023-04-16T08:38:42.038Z,950.42
2023-04-16T08:39:42.055Z,950.44
2023-04-16T08:40:42.025Z,950.45
2023-04-16T08:41:42.045Z,950.44
2023-04-16T08:42:41.996Z,950.44
2023-04-16T08:43:41.983Z,950.47
2023-04-16T08:44:41.993Z,950.48
2023-04-16T08:45:41.982Z,950.47
2023-04-16T08:46:42.009Z,950.51
2023-04-16T08:47:42.007Z,950.49
2023-04-16T08:48:41.955Z,950.50
2023-04-16T08:49:41.935Z,950.49
2023-04-16T08:50:41.912Z,950.57
2023-04-16T08:51:41.916Z,950.57
2023-04-16T08:52:41.897Z,950.55
2023-04-16T08:53:41.872Z,950.53
2023-04-16T08:54:41.897Z,950.52
2023-04-16T08:55:41.851Z,950.53
2023-04-16T08:56:43.063Z,950.58
2023-04-16T08:57:41.825Z,950.54
2023-04-16T08:58:41.844Z,950.55
2023-04-16T08:59:41.807Z,950.55
2023-04-16T09:00:41.808Z,950.55
2023-04-16T09:01:41.804Z,950.59
2023-04-16T09:02:41.902Z,950.60
2023-04-16T09:03:41.880Z,950.54
2023-04-16T09:04:41.838Z,950.56
2023-04-16T09:05:41.747Z,950.52
2023-04-16T09:06:41.747Z,950.55
2023-04-16T09:07:41.709Z,950.55
2023-04-16T09:08:41.730Z,950.58
2023-04-16T09:09:41.692Z,950.59
2023-04-16T09:10:41.694Z,950.57
2023-04-16T09:11:41.684Z,950.59
2023-04-16T09:12:41.665Z,950.56
2023-04-16T09:13:42.643Z,950.65
2023-04-16T09:14:41.632Z,950.60
2023-04-16T09:15:41.628Z,950.66
2023-04-16T09:16:41.644Z,950.65
2023-04-16T09:17:41.638Z,950.67
2023-04-16T09:18:41.594Z,950.70
2023-04-16T09:19:41.682Z,950.71
2023-04-16T09:20:41.564Z,950.71
2023-04-16T09:21:41.580Z,950.78
2023-04-16T09:22:41.556Z,950.64
2023-04-16T09:23:41.536Z,950.68
2023-04-16T09:24:41.548Z,950.71
2023-04-16T09:25:41.636Z,950.73
2023-04-16T09:26:41.535Z,950.71
2023-04-16T09:27:41.488Z,950.70
2023-04-16T09:28:41.512Z,950.72
2023-04-16T09:29:41.484Z,950.75
2023-04-16T09:30:41.455Z,950.72
2023-04-16T09:31:41.623Z,950.73
2023-04-16T09:32:41.448Z,950.77
2023-04-16T09:33:41.425Z,950.75
2023-04-16T09:34:41.437Z,950.76
2023-04-16T09:35:41.417Z,950.77
2023-04-16T09:36:41.405Z,950.77
2023-04-16T09:37:41.383Z,950.77
2023-04-16T09:38:41.370Z,950.81
2023-04-16T09:39:41.378Z,950.79
2023-04-16T09:40:42.432Z,950.80
2023-04-16T09:41:41.367Z,950.80
2023-04-16T09:42:41.405Z,950.75
2023-04-16T09:43:41.325Z,950.77
2023-04-16T09:44:41.322Z,950.75
2023-04-16T09:45:41.312Z,950.77
2023-04-16T09:46:41.316Z,950.80
2023-04-16T09:47:41.381Z,950.83
2023-04-16T09:48:41.260Z,950.81
2023-04-16T09:49:41.271Z,950.85
2023-04-16T09:50:41.250Z,950.79
2023-04-16T09:51:41.278Z,950.82
2023-04-16T09:52:41.217Z,950.84
2023-04-16T09:53:43.521Z,950.90
2023-04-16T09:54:41.194Z,950.89
2023-04-16T09:55:42.246Z,950.91
2023-04-16T09:56:41.213Z,950.92
2023-04-16T09:57:41.187Z,950.96
2023-04-16T09:58:41.162Z,950.92
2023-04-16T09:59:41.141Z,950.95
2023-04-16T10:00:43.458Z,950.92
2023-04-16T10:01:41.199Z,950.96
2023-04-16T10:02:41.256Z,950.95
2023-04-16T10:03:41.419Z,950.96
2023-04-16T10:04:41.120Z,950.98
2023-04-16T10:05:41.103Z,950.96
2023-04-16T10:06:41.095Z,951.00
2023-04-16T10:07:41.092Z,951.00
2023-04-16T10:08:41.040Z,950.95
2023-04-16T10:09:41.037Z,951.02
2023-04-16T10:10:41.071Z,950.94
2023-04-16T10:11:41.021Z,951.00
2023-04-16T10:12:41.017Z,951.05
2023-04-16T10:13:41.025Z,951.07
2023-04-16T10:14:40.976Z,951.04
2023-04-16T10:15:40.963Z,951.04
2023-04-16T10:16:41.183Z,951.08
2023-04-16T10:17:40.960Z,951.04
2023-04-16T10:18:40.969Z,951.09
2023-04-16T10:19:40.920Z,951.07
2023-04-16T10:20:40.941Z,951.07
2023-04-16T10:21:40.898Z,951.11
2023-04-16T10:22:40.890Z,951.13
2023-04-16T10:23:40.912Z,951.18
2023-04-16T10:24:40.902Z,951.15
2023-04-16T10:25:40.872Z,951.16
2023-04-16T10:26:40.864Z,951.21
2023-04-16T10:27:40.844Z,951.19
2023-04-16T10:28:40.847Z,951.18
2023-04-16T10:29:40.816Z,951.21
2023-04-16T10:30:40.836Z,951.19
2023-04-16T10:31:40.788Z,951.23
2023-04-16T10:32:40.827Z,951.21
2023-04-16T10:33:40.763Z,951.20
2023-04-16T10:34:40.751Z,951.22
2023-04-16T10:35:40.747Z,951.21
2023-04-16T10:36:40.759Z,951.21
2023-04-16T10:37:40.715Z,951.23
2023-04-16T10:38:40.724Z,951.18
2023-04-16T10:39:40.717Z,951.21
2023-04-16T10:40:40.688Z,951.21
2023-04-16T10:41:40.695Z,951.24
2023-04-16T10:42:40.679Z,951.23
2023-04-16T10:43:40.667Z,951.28
2023-04-16T10:44:43.410Z,951.29
2023-04-16T10:45:40.627Z,951.31
2023-04-16T10:46:40.726Z,951.24
2023-04-16T10:47:40.670Z,951.24
2023-04-16T10:48:49.706Z,951.28
2023-04-16T10:49:41.581Z,951.33
2023-04-16T10:50:40.582Z,951.27
2023-04-16T10:51:40.588Z,951.30
2023-04-16T10:52:40.578Z,951.25
2023-04-16T10:53:40.538Z,951.29
2023-04-16T10:54:40.541Z,951.29
2023-04-16T10:55:40.524Z,951.30
2023-04-16T10:56:40.498Z,951.25
2023-04-16T10:57:40.482Z,951.32
2023-04-16T10:58:40.490Z,951.28
2023-04-16T10:59:40.477Z,951.26
2023-04-16T11:00:40.463Z,951.27
2023-04-16T11:01:40.483Z,951.25
2023-04-16T11:02:40.638Z,951.25
2023-04-16T11:03:40.556Z,951.28
2023-04-16T11:04:40.500Z,951.26
2023-04-16T11:05:40.416Z,951.27
2023-04-16T11:06:40.384Z,951.26
2023-04-16T11:07:40.402Z,951.23
2023-04-16T11:08:53.380Z,951.23
2023-04-16T11:09:41.371Z,951.22
2023-04-16T11:10:40.340Z,951.26
2023-04-16T11:11:40.345Z,951.25
2023-04-16T11:12:40.317Z,951.27
2023-04-16T11:13:41.272Z,951.31
2023-04-16T11:14:40.313Z,951.25
2023-04-16T11:15:40.313Z,951.27
2023-04-16T11:16:40.267Z,951.28
2023-04-16T11:17:40.317Z,951.27
2023-04-16T11:18:43.174Z,951.29
2023-04-16T11:19:41.263Z,951.32
2023-04-16T11:20:40.243Z,951.30
2023-04-16T11:21:40.241Z,951.26
2023-04-16T11:22:40.200Z,951.29
2023-04-16T11:23:40.197Z,951.27
2023-04-16T11:24:40.175Z,951.32
2023-04-16T11:25:40.191Z,951.27
2023-04-16T11:26:41.279Z,951.32
2023-04-16T11:27:40.167Z,951.31
2023-04-16T11:28:40.141Z,951.28
2023-04-16T11:29:40.135Z,951.22
2023-04-16T11:30:40.151Z,951.20
2023-04-16T11:31:40.131Z,951.27
2023-04-16T11:32:40.110Z,951.29
2023-04-16T11:33:40.075Z,951.27
2023-04-16T11:34:40.071Z,951.21
2023-04-16T11:35:40.068Z,951.24
2023-04-16T11:36:40.055Z,951.25
2023-04-16T11:37:40.090Z,951.24
2023-04-16T11:38:40.024Z,951.21
2023-04-16T11:39:40.019Z,951.22
2023-04-16T11:40:40.000Z,951.25
2023-04-16T11:41:40.032Z,951.24
2023-04-16T11:42:40.073Z,951.28
2023-04-16T11:43:39.995Z,951.29
2023-04-16T11:44:39.947Z,951.27
2023-04-16T11:45:39.977Z,951.24
2023-04-16T11:46:40.020Z,951.26
2023-04-16T11:47:39.944Z,951.29
2023-04-16T11:48:39.898Z,951.30
2023-04-16T11:49:39.898Z,951.30
2023-04-16T11:50:39.897Z,951.31
2023-04-16T11:51:39.869Z,951.30
2023-04-16T11:52:39.878Z,951.28
2023-04-16T11:53:39.841Z,951.28
2023-04-16T11:54:39.830Z,951.28
2023-04-16T11:55:39.850Z,951.25
2023-04-16T11:56:39.826Z,951.29
2023-04-16T11:57:39.797Z,951.35
2023-04-16T11:58:42.493Z,951.29
2023-04-16T12:00:01.725Z,951.34
2023-04-16T12:00:40.781Z,951.36
2023-04-16T12:01:39.820Z,951.33
2023-04-16T12:02:40.908Z,951.29
2023-04-16T12:03:40.270Z,951.31
2023-04-16T12:04:39.839Z,951.37
2023-04-16T12:05:39.703Z,951.32
2023-04-16T12:06:39.710Z,951.30
2023-04-16T12:07:39.697Z,951.30
2023-04-16T12:08:39.676Z,951.28
2023-04-16T12:09:40.910Z,951.26
2023-04-16T12:10:39.651Z,951.29
2023-04-16T12:11:39.636Z,951.29
2023-04-16T12:12:39.655Z,951.28
2023-04-16T12:13:39.666Z,951.28
2023-04-16T12:14:39.603Z,951.29
2023-04-16T12:15:39.680Z,951.30
2023-04-16T12:16:39.620Z,951.29
2023-04-16T12:17:39.601Z,951.30
2023-04-16T12:18:39.583Z,951.33
2023-04-16T12:19:39.561Z,951.31
2023-04-16T12:20:39.539Z,951.32
2023-04-16T12:21:39.530Z,951.32
2023-04-16T12:22:39.574Z,951.39
2023-04-16T12:23:39.536Z,951.33
2023-04-16T12:24:39.491Z,951.37
2023-04-16T12:25:39.505Z,951.37
2023-04-16T12:26:39.484Z,951.35
2023-04-16T12:27:39.476Z,951.37
2023-04-16T12:28:39.454Z,951.34
2023-04-16T12:29:39.445Z,951.35